Time;durP1;ratioP1;P1;durP2;ratioP2;P2;SDS_P1;SDS_P2;PMS_P1;PMS_P2;Temp;Humidity;BMP_temperature;BMP_pressure;BME280_temperature;BME280_humidity;BME280_pressure;Samples;Min_cycle;Max_cycle;Signal;HPM_P1;HPM_P2
2023/01/26 00:01:21;;;;;;;;;;;0.10;99.90;;;;;;5048964;28;19974;-56
2023/01/26 00:03:47;;;;;;;;;;;0.20;99.90;;;;;;5046870;28;20307;-58
2023/01/26 00:06:13;;;;;;;;;;;0.10;99.90;;;;;;5048863;28;19917;-62
2023/01/26 00:08:40;;;;;;;;;;;0.20;99.90;;;;;;5051969;28;19946;-60
2023/01/26 00:11:06;;;;;;;;;;;0.10;99.90;;;;;;5048366;28;20152;-60
2023/01/26 00:13:32;;;;;;;;;;;0.10;99.90;;;;;;5048626;28;20314;-57
2023/01/26 00:15:58;;;;;;;;;;;0.10;99.90;;;;;;5047141;28;19913;-60
2023/01/26 00:18:23;;;;;;;;;;;0.10;99.90;;;;;;5030705;28;19920;-60
2023/01/26 00:20:54;;;;;;;;;;;0.00;99.90;;;;;;5049669;28;19913;-60
2023/01/26 00:23:19;;;;;;;;;;;0.00;99.90;;;;;;5049864;28;20007;-60
2023/01/26 00:25:44;;;;;;;;;;;-0.10;99.90;;;;;;5048231;28;20067;-60
2023/01/26 00:28:10;;;;;;;;;;;0.00;99.90;;;;;;5049907;28;19924;-59
2023/01/26 00:30:35;;;;;;;;;;;0.00;99.90;;;;;;5046555;28;19931;-61
2023/01/26 00:33:01;;;;;;;;;;;0.00;99.90;;;;;;5047939;28;19913;-60
2023/01/26 00:35:26;;;;;;;;;;;-0.10;99.90;;;;;;5048092;28;19913;-61
2023/01/26 00:37:53;;;;;;;;;;;-0.10;99.90;;;;;;5049210;28;19924;-60
2023/01/26 00:40:19;;;;;;;;;;;-0.10;99.90;;;;;;5049095;28;19913;-60
2023/01/26 00:42:44;;;;;;;;;;;-0.10;99.90;;;;;;5051412;28;19913;-60
2023/01/26 00:45:10;;;;;;;;;;;-0.10;99.90;;;;;;5046339;28;19928;-60
2023/01/26 00:47:35;;;;;;;;;;;-0.20;99.90;;;;;;5049702;28;20379;-60
2023/01/26 00:50:00;;;;;;;;;;;-0.10;99.90;;;;;;5044420;28;19916;-60
2023/01/26 00:52:26;;;;;;;;;;;-0.20;99.90;;;;;;5049259;28;19925;-59
2023/01/26 00:54:51;;;;;;;;;;;-0.20;99.90;;;;;;5030714;28;19912;-55
2023/01/26 00:57:17;;;;;;;;;;;-0.20;99.90;;;;;;5046812;28;19947;-60
2023/01/26 00:59:42;;;;;;;;;;;-0.20;99.90;;;;;;5043726;28;19913;-58
2023/01/26 01:02:08;;;;;;;;;;;-0.20;99.90;;;;;;5032328;28;19913;-57
2023/01/26 01:04:33;;;;;;;;;;;-0.10;99.90;;;;;;5045675;28;19951;-58
2023/01/26 01:06:59;;;;;;;;;;;-0.10;99.90;;;;;;5049087;28;19921;-55
2023/01/26 01:09:24;;;;;;;;;;;-0.10;99.90;;;;;;5047895;28;20451;-60
2023/01/26 01:11:49;;;;;;;;;;;0.00;99.90;;;;;;5048350;28;19920;-60
2023/01/26 01:14:15;;;;;;;;;;;0.00;99.90;;;;;;5048701;28;19913;-56
2023/01/26 01:16:41;;;;;;;;;;;-0.10;99.90;;;;;;5048175;28;19999;-58
2023/01/26 01:19:07;;;;;;;;;;;-0.10;99.90;;;;;;5046123;28;20307;-60
2023/01/26 01:21:32;;;;;;;;;;;0.00;99.90;;;;;;5047470;28;19974;-60
2023/01/26 01:23:59;;;;;;;;;;;-0.10;99.90;;;;;;5044415;28;19913;-59
2023/01/26 01:26:24;;;;;;;;;;;-0.10;99.90;;;;;;5049681;28;19924;-58
2023/01/26 01:28:52;;;;;;;;;;;-0.10;99.90;;;;;;5047127;28;19924;-56
2023/01/26 01:31:17;;;;;;;;;;;-0.10;99.90;;;;;;5047966;28;20405;-57
2023/01/26 01:33:43;;;;;;;;;;;-0.20;99.90;;;;;;5046309;28;19979;-57
2023/01/26 01:36:12;;;;;;;;;;;-0.20;99.90;;;;;;5049213;28;19913;-60
2023/01/26 01:38:38;;;;;;;;;;;-0.20;99.90;;;;;;5049100;28;19921;-59
2023/01/26 01:41:04;;;;;;;;;;;-0.20;99.90;;;;;;5047403;28;20401;-61
2023/01/26 01:43:29;;;;;;;;;;;-0.20;99.90;;;;;;5045242;28;19935;-57
2023/01/26 01:45:55;;;;;;;;;;;-0.20;99.90;;;;;;5044541;28;19916;-61
2023/01/26 01:48:26;;;;;;;;;;;-0.20;99.90;;;;;;5047161;28;19916;-58
2023/01/26 01:50:53;;;;;;;;;;;-0.20;99.90;;;;;;5047872;28;19912;-58
2023/01/26 01:53:23;;;;;;;;;;;-0.20;99.90;;;;;;5047422;28;19912;-60
2023/01/26 01:55:53;;;;;;;;;;;-0.10;99.90;;;;;;5048560;28;19913;-60
2023/01/26 01:58:19;;;;;;;;;;;-0.20;99.90;;;;;;5047144;28;19920;-61
2023/01/26 02:00:44;;;;;;;;;;;-0.10;99.90;;;;;;5046873;28;19917;-60
2023/01/26 02:03:10;;;;;;;;;;;0.00;99.90;;;;;;5048104;28;19920;-60
2023/01/26 02:06:05;;;;;;;;;;;0.10;99.90;;;;;;5051472;28;19935;-60
2023/01/26 02:08:36;;;;;;;;;;;0.10;99.90;;;;;;5032395;28;20039;-60
2023/01/26 02:11:07;;;;;;;;;;;-0.20;99.90;;;;;;5051083;28;19929;-58
2023/01/26 02:13:33;;;;;;;;;;;-0.20;99.90;;;;;;5050173;28;19944;-57
2023/01/26 02:15:59;;;;;;;;;;;-0.10;99.90;;;;;;5047541;28;19971;-58
2023/01/26 02:18:24;;;;;;;;;;;-0.10;99.90;;;;;;5050529;28;19921;-55
2023/01/26 02:20:51;;;;;;;;;;;-0.10;99.90;;;;;;5051343;28;19940;-60
2023/01/26 02:23:29;;;;;;;;;;;-0.10;99.90;;;;;;5051373;28;19997;-62
2023/01/26 02:25:56;;;;;;;;;;;-0.10;99.90;;;;;;5025493;28;20294;-59
2023/01/26 02:28:23;;;;;;;;;;;-0.20;99.90;;;;;;5052107;28;19916;-58
2023/01/26 02:30:49;;;;;;;;;;;-0.20;99.90;;;;;;5048873;28;19916;-60
2023/01/26 02:33:18;;;;;;;;;;;-0.20;99.90;;;;;;5032794;28;19974;-60
2023/01/26 02:35:43;;;;;;;;;;;-0.30;99.90;;;;;;5050249;28;20377;-58
2023/01/26 02:38:09;;;;;;;;;;;-0.30;99.90;;;;;;5050656;28;19999;-60
2023/01/26 02:40:42;;;;;;;;;;;-0.30;99.90;;;;;;5043835;28;19917;-61
2023/01/26 02:43:08;;;;;;;;;;;-0.40;99.90;;;;;;5047248;28;19920;-61
2023/01/26 02:45:33;;;;;;;;;;;-0.40;99.90;;;;;;5044697;28;19921;-60
2023/01/26 02:48:03;;;;;;;;;;;-0.40;99.90;;;;;;5049409;28;19935;-60
2023/01/26 02:50:29;;;;;;;;;;;-0.40;99.90;;;;;;5047076;28;19928;-60
2023/01/26 02:52:54;;;;;;;;;;;-0.30;99.90;;;;;;5049988;28;20000;-61
2023/01/26 02:55:27;;;;;;;;;;;-0.30;99.90;;;;;;5050044;28;19928;-61
2023/01/26 02:58:02;;;;;;;;;;;-0.40;99.90;;;;;;5045509;28;19936;-59
2023/01/26 03:00:29;;;;;;;;;;;-0.40;99.90;;;;;;5046948;28;19916;-58
2023/01/26 03:02:56;;;;;;;;;;;-0.40;99.90;;;;;;5048029;28;19996;-59
2023/01/26 03:05:21;;;;;;;;;;;-0.40;99.90;;;;;;5031935;28;19923;-57
2023/01/26 03:07:47;;;;;;;;;;;-0.50;99.90;;;;;;5031681;28;19917;-59
2023/01/26 03:10:14;;;;;;;;;;;-0.50;99.90;;;;;;5050320;28;19919;-60
2023/01/26 03:12:40;;;;;;;;;;;-0.50;99.90;;;;;;5048162;28;19920;-58
2023/01/26 03:17:50;;;;;;;;;;;-0.50;99.90;;;;;;5046034;28;19967;-60
2023/01/26 03:28:28;;;;;;;;;;;-0.40;99.90;;;;;;5048929;28;19935;-59
2023/01/26 03:30:56;;;;;;;;;;;-0.30;99.90;;;;;;5048121;28;20379;-58
2023/01/26 03:33:22;;;;;;;;;;;-0.30;99.90;;;;;;5046484;28;19959;-60
2023/01/26 03:35:47;;;;;;;;;;;-0.30;99.90;;;;;;5050695;28;19956;-60
2023/01/26 03:38:12;;;;;;;;;;;-0.30;99.90;;;;;;5032339;28;19921;-60
2023/01/26 03:57:03;;;;;;;;;;;-0.30;99.90;;;;;;5048133;28;19919;-56
2023/01/26 03:59:38;;;;;;;;;;;-0.20;99.90;;;;;;5048486;28;19913;-54
2023/01/26 04:10:17;;;;;;;;;;;-0.30;99.90;;;;;;5048602;28;19939;-60
2023/01/26 04:12:42;;;;;;;;;;;-0.40;99.90;;;;;;5045122;28;19913;-60
2023/01/26 04:23:20;;;;;;;;;;;-0.30;99.90;;;;;;5062996;28;19958;-61
2023/01/26 04:25:46;;;;;;;;;;;-0.40;99.90;;;;;;5064440;28;19928;-61
2023/01/26 04:28:12;;;;;;;;;;;-0.30;99.90;;;;;;5063892;28;19915;-60
2023/01/26 04:30:38;;;;;;;;;;;-0.20;99.90;;;;;;5070672;28;19963;-60
2023/01/26 04:33:03;;;;;;;;;;;-0.20;99.90;;;;;;5066302;28;20358;-61
2023/01/26 04:35:29;;;;;;;;;;;-0.20;99.90;;;;;;5067872;28;19927;-61
2023/01/26 04:37:54;;;;;;;;;;;-0.40;99.90;;;;;;5070564;28;19912;-61
2023/01/26 04:40:20;;;;;;;;;;;-0.40;99.90;;;;;;5069514;28;19927;-61
2023/01/26 04:42:46;;;;;;;;;;;-0.30;99.90;;;;;;5064048;28;19915;-62
2023/01/26 04:45:11;;;;;;;;;;;-0.30;99.90;;;;;;5064456;28;19970;-61
2023/01/26 04:47:36;;;;;;;;;;;-0.30;99.90;;;;;;5071302;28;19919;-61
2023/01/26 04:50:02;;;;;;;;;;;-0.40;99.90;;;;;;5067704;28;19917;-59
2023/01/26 04:52:27;;;;;;;;;;;-0.30;99.90;;;;;;5064822;28;19936;-63
2023/01/26 04:54:53;;;;;;;;;;;-0.30;99.90;;;;;;5067381;28;19928;-64
2023/01/26 04:57:23;;;;;;;;;;;-0.40;99.90;;;;;;5070193;28;19912;-62
2023/01/26 04:59:48;;;;;;;;;;;-0.60;99.90;;;;;;5068423;28;19923;-63
2023/01/26 05:02:14;;;;;;;;;;;-0.60;99.90;;;;;;5061512;28;19916;-62
2023/01/26 05:04:39;;;;;;;;;;;-0.50;99.90;;;;;;5071498;28;19944;-63
2023/01/26 05:07:05;;;;;;;;;;;-0.40;99.90;;;;;;5067772;28;19912;-63
2023/01/26 05:09:30;;;;;;;;;;;-0.30;99.90;;;;;;5068299;28;19919;-63
2023/01/26 05:12:32;;;;;;;;;;;-0.30;99.90;;;;;;5067394;28;19959;-63
2023/01/26 05:14:41;;;;;;;;;;;-0.30;99.90;;;;;;5068949;28;19954;-63
2023/01/26 05:17:06;;;;;;;;;;;-0.30;99.90;;;;;;5068542;28;19912;-63
2023/01/26 05:19:32;;;;;;;;;;;-0.30;99.90;;;;;;5073103;28;20544;-63
2023/01/26 05:21:57;;;;;;;;;;;-0.20;99.90;;;;;;5068261;28;19977;-63
2023/01/26 05:24:23;;;;;;;;;;;-0.30;99.90;;;;;;5068262;28;19920;-62
2023/01/26 05:27:19;;;;;;;;;;;-0.50;99.90;;;;;;5067586;28;19917;-62
2023/01/26 05:29:34;;;;;;;;;;;-0.40;99.90;;;;;;5067867;28;20325;-62
2023/01/26 05:31:59;;;;;;;;;;;-0.50;99.90;;;;;;5064594;28;19942;-64
2023/01/26 05:34:24;;;;;;;;;;;-0.50;99.90;;;;;;5067613;28;20444;-62
2023/01/26 05:36:50;;;;;;;;;;;-0.30;99.90;;;;;;5068146;28;20561;-63
2023/01/26 05:39:15;;;;;;;;;;;-0.30;99.90;;;;;;5075756;28;19920;-63
2023/01/26 05:41:41;;;;;;;;;;;-0.30;99.90;;;;;;5069859;28;19916;-62
2023/01/26 05:44:06;;;;;;;;;;;-0.50;99.90;;;;;;5069197;28;19973;-62
2023/01/26 05:46:32;;;;;;;;;;;-0.40;99.90;;;;;;5071069;28;19963;-62
2023/01/26 05:48:57;;;;;;;;;;;-0.30;99.90;;;;;;5073291;28;19948;-62
2023/01/26 05:51:23;;;;;;;;;;;-0.30;99.90;;;;;;5071664;28;19919;-61
2023/01/26 05:53:48;;;;;;;;;;;-0.30;99.90;;;;;;5066945;28;19919;-61
2023/01/26 05:56:14;;;;;;;;;;;-0.20;99.90;;;;;;5056017;28;19919;-61
2023/01/26 05:58:39;;;;;;;;;;;-0.20;99.90;;;;;;5070358;28;19926;-61
2023/01/26 06:01:05;;;;;;;;;;;-0.20;99.90;;;;;;5069118;28;19939;-62
2023/01/26 06:03:30;;;;;;;;;;;-0.20;99.90;;;;;;5068909;28;19920;-62
2023/01/26 06:05:55;;;;;;;;;;;-0.20;99.90;;;;;;5067653;28;19939;-60
2023/01/26 06:08:21;;;;;;;;;;;-0.20;99.90;;;;;;5069353;28;19957;-61
2023/01/26 06:10:46;;;;;;;;;;;-0.20;99.90;;;;;;5069258;28;19962;-61
2023/01/26 06:13:12;;;;;;;;;;;-0.20;99.90;;;;;;5072521;28;19919;-63
2023/01/26 06:15:38;;;;;;;;;;;-0.10;99.90;;;;;;5073643;28;19949;-61
2023/01/26 06:18:03;;;;;;;;;;;-0.10;99.90;;;;;;5069439;28;19923;-61
2023/01/26 06:20:28;;;;;;;;;;;-0.10;99.90;;;;;;5063903;28;19935;-61
2023/01/26 06:22:58;;;;;;;;;;;-0.10;99.90;;;;;;5068439;28;20003;-63
2023/01/26 06:25:23;;;;;;;;;;;-0.10;99.90;;;;;;5070008;28;21538;-62
2023/01/26 06:27:48;;;;;;;;;;;-0.10;99.90;;;;;;5066547;28;19939;-61
2023/01/26 06:30:14;;;;;;;;;;;-0.10;99.90;;;;;;5068025;28;19920;-60
2023/01/26 06:32:40;;;;;;;;;;;-0.10;99.90;;;;;;5069502;28;19913;-62
2023/01/26 06:35:05;;;;;;;;;;;-0.20;99.90;;;;;;5072670;28;20015;-62
2023/01/26 06:37:32;;;;;;;;;;;-0.30;99.90;;;;;;5072628;28;19913;-62
2023/01/26 06:39:57;;;;;;;;;;;-0.20;99.90;;;;;;5071060;28;20289;-62
2023/01/26 06:42:23;;;;;;;;;;;-0.30;99.90;;;;;;5072206;28;19908;-62
2023/01/26 06:44:48;;;;;;;;;;;-0.20;99.90;;;;;;5071690;28;20006;-61
2023/01/26 06:47:14;;;;;;;;;;;-0.40;99.90;;;;;;5070907;28;19916;-62
2023/01/26 06:49:39;;;;;;;;;;;-0.30;99.90;;;;;;5071893;28;20297;-62
2023/01/26 06:52:20;;;;;;;;;;;-0.20;99.90;;;;;;5073126;28;20275;-62
2023/01/26 06:54:47;;;;;;;;;;;-0.10;99.90;;;;;;5072022;28;19927;-63
2023/01/26 06:57:12;;;;;;;;;;;-0.10;99.90;;;;;;5072256;28;19912;-61
2023/01/26 06:59:38;;;;;;;;;;;-0.30;99.90;;;;;;5073599;28;19916;-62
2023/01/26 07:02:05;;;;;;;;;;;-0.20;99.90;;;;;;5073234;28;19917;-62
2023/01/26 07:04:30;;;;;;;;;;;-0.20;99.90;;;;;;5067107;28;19920;-62
2023/01/26 07:06:55;;;;;;;;;;;-0.30;99.90;;;;;;5072791;28;20302;-61
2023/01/26 07:09:21;;;;;;;;;;;-0.20;99.90;;;;;;5073510;28;19995;-62
2023/01/26 07:11:46;;;;;;;;;;;-0.20;99.90;;;;;;5071947;28;19916;-63
2023/01/26 07:14:12;;;;;;;;;;;-0.10;99.90;;;;;;5072966;28;19916;-62
2023/01/26 07:16:37;;;;;;;;;;;0.00;99.90;;;;;;5070377;28;19948;-62
2023/01/26 07:19:03;;;;;;;;;;;0.00;99.90;;;;;;5070280;28;19916;-62
2023/01/26 07:21:28;;;;;;;;;;;0.00;99.90;;;;;;5072544;28;20374;-62
2023/01/26 07:23:54;;;;;;;;;;;0.00;99.90;;;;;;5072489;28;20006;-62
2023/01/26 07:26:20;;;;;;;;;;;0.10;99.90;;;;;;5068440;28;19916;-63
2023/01/26 07:28:45;;;;;;;;;;;0.10;99.90;;;;;;5049256;28;20379;-63
2023/01/26 07:31:11;;;;;;;;;;;0.00;99.90;;;;;;5072701;28;19918;-62
2023/01/26 07:33:37;;;;;;;;;;;-0.10;99.90;;;;;;5071989;28;20263;-62
2023/01/26 07:36:03;;;;;;;;;;;-0.10;99.90;;;;;;5070638;28;20375;-62
2023/01/26 07:38:28;;;;;;;;;;;0.00;99.90;;;;;;5071539;28;19935;-62
2023/01/26 07:40:54;;;;;;;;;;;-0.10;99.90;;;;;;5070640;28;20390;-63
2023/01/26 07:43:20;;;;;;;;;;;-0.10;99.90;;;;;;5072095;28;19939;-63
2023/01/26 07:45:50;;;;;;;;;;;-0.10;99.90;;;;;;5072039;28;19919;-62
2023/01/26 07:48:16;;;;;;;;;;;-0.10;99.90;;;;;;5072301;28;19913;-62
2023/01/26 07:50:42;;;;;;;;;;;-0.10;99.90;;;;;;5070902;28;19938;-61
2023/01/26 07:53:08;;;;;;;;;;;-0.10;99.90;;;;;;5071728;28;20038;-64
2023/01/26 07:55:34;;;;;;;;;;;0.00;99.90;;;;;;5071015;28;19959;-62
2023/01/26 07:57:59;;;;;;;;;;;0.00;99.90;;;;;;5078196;28;19916;-62
2023/01/26 08:00:25;;;;;;;;;;;0.00;99.90;;;;;;5053387;28;20305;-63
2023/01/26 08:02:50;;;;;;;;;;;0.10;99.90;;;;;;5071867;28;19913;-63
2023/01/26 08:05:16;;;;;;;;;;;0.10;99.90;;;;;;5070445;28;20285;-63
2023/01/26 08:07:41;;;;;;;;;;;0.10;99.90;;;;;;5075151;28;19966;-62
2023/01/26 08:10:09;;;;;;;;;;;0.20;99.90;;;;;;5072380;28;20390;-62
2023/01/26 08:12:35;;;;;;;;;;;0.20;99.90;;;;;;5071016;28;20451;-65
2023/01/26 08:15:00;;;;;;;;;;;0.30;99.90;;;;;;5067568;28;19908;-61
2023/01/26 08:17:27;;;;;;;;;;;0.20;99.90;;;;;;5071970;28;20003;-61
2023/01/26 08:19:52;;;;;;;;;;;0.30;99.90;;;;;;5071517;28;19959;-61
2023/01/26 08:22:18;;;;;;;;;;;0.20;99.90;;;;;;5071807;28;19908;-65
2023/01/26 08:24:43;;;;;;;;;;;0.20;99.90;;;;;;5071502;28;19908;-62
2023/01/26 08:27:09;;;;;;;;;;;0.30;99.90;;;;;;5052731;28;19924;-61
2023/01/26 08:29:34;;;;;;;;;;;0.40;99.90;;;;;;5067133;28;19912;-62
2023/01/26 08:32:00;;;;;;;;;;;0.30;99.90;;;;;;5066328;28;20013;-62
2023/01/26 08:34:25;;;;;;;;;;;0.40;99.90;;;;;;5063344;28;20294;-62
2023/01/26 08:36:50;;;;;;;;;;;0.30;99.90;;;;;;5062143;28;19917;-62
2023/01/26 08:39:16;;;;;;;;;;;0.30;99.90;;;;;;5071173;28;19912;-62
2023/01/26 08:41:41;;;;;;;;;;;0.20;99.90;;;;;;5070052;28;19970;-62
2023/01/26 08:44:08;;;;;;;;;;;0.30;99.90;;;;;;5070691;28;19913;-62
2023/01/26 08:46:33;;;;;;;;;;;0.40;99.90;;;;;;5053220;28;20317;-62
2023/01/26 08:48:59;;;;;;;;;;;0.40;99.90;;;;;;5071351;28;19954;-60
2023/01/26 08:51:24;;;;;;;;;;;0.40;99.90;;;;;;5060117;28;19939;-62
2023/01/26 08:53:50;;;;;;;;;;;0.50;99.90;;;;;;5069585;28;20388;-62
2023/01/26 08:56:16;;;;;;;;;;;0.40;99.90;;;;;;5071465;28;19912;-61
2023/01/26 08:58:41;;;;;;;;;;;0.40;99.90;;;;;;5055502;28;19913;-62
2023/01/26 09:01:09;;;;;;;;;;;0.40;99.90;;;;;;5071609;28;19908;-61
2023/01/26 09:03:35;;;;;;;;;;;0.40;99.90;;;;;;5068257;28;19944;-60
2023/01/26 09:06:01;;;;;;;;;;;0.40;99.90;;;;;;5069327;28;19955;-63
2023/01/26 09:08:26;;;;;;;;;;;0.50;99.90;;;;;;5038947;28;20341;-61
2023/01/26 09:10:52;;;;;;;;;;;0.60;99.90;;;;;;5071675;28;19913;-62
2023/01/26 09:13:17;;;;;;;;;;;0.60;99.90;;;;;;5071758;28;20412;-62
2023/01/26 09:15:43;;;;;;;;;;;0.60;99.90;;;;;;5068658;28;20298;-62
2023/01/26 09:18:08;;;;;;;;;;;0.60;99.90;;;;;;5074144;28;19917;-62
2023/01/26 09:20:34;;;;;;;;;;;0.70;99.90;;;;;;5075172;28;19909;-62
2023/01/26 09:22:59;;;;;;;;;;;0.80;99.90;;;;;;5075127;28;19915;-62
2023/01/26 09:25:24;;;;;;;;;;;0.80;99.90;;;;;;5070235;28;20011;-62
2023/01/26 09:27:50;;;;;;;;;;;0.80;99.90;;;;;;5073169;28;20290;-62
2023/01/26 09:30:15;;;;;;;;;;;0.80;99.90;;;;;;5074666;28;19909;-62
2023/01/26 09:32:41;;;;;;;;;;;0.80;99.90;;;;;;5075142;28;19999;-62
2023/01/26 09:35:10;;;;;;;;;;;0.70;99.90;;;;;;5074395;28;19913;-61
2023/01/26 09:37:36;;;;;;;;;;;0.70;99.90;;;;;;5074956;28;19916;-62
2023/01/26 09:40:01;;;;;;;;;;;0.80;99.90;;;;;;5074401;28;20450;-62
2023/01/26 09:42:38;;;;;;;;;;;0.80;99.90;;;;;;5072891;28;19940;-62
2023/01/26 09:45:12;;;;;;;;;;;0.90;99.90;;;;;;5073599;28;19923;-61
2023/01/26 09:47:44;;;;;;;;;;;0.90;99.90;;;;;;5074341;28;20381;-62
2023/01/26 09:50:12;;;;;;;;;;;0.80;99.90;;;;;;5056758;28;20369;-62
2023/01/26 09:52:46;;;;;;;;;;;0.90;99.90;;;;;;5056452;28;19909;-62
2023/01/26 09:55:14;;;;;;;;;;;0.90;99.90;;;;;;5073340;28;20393;-61
2023/01/26 09:57:39;;;;;;;;;;;0.90;99.90;;;;;;5074021;28;19913;-61
2023/01/26 10:00:14;;;;;;;;;;;0.90;99.90;;;;;;5074712;28;20309;-61
2023/01/26 10:02:39;;;;;;;;;;;0.90;99.90;;;;;;5074792;28;19908;-62
2023/01/26 10:05:13;;;;;;;;;;;0.90;99.90;;;;;;5074377;28;20263;-62
2023/01/26 10:07:42;;;;;;;;;;;1.00;99.90;;;;;;5081916;28;19966;-58
2023/01/26 10:10:09;;;;;;;;;;;1.00;99.90;;;;;;5072634;28;19908;-61
2023/01/26 10:12:35;;;;;;;;;;;1.00;99.90;;;;;;5072776;28;19915;-62
2023/01/26 10:15:03;;;;;;;;;;;1.10;99.90;;;;;;5077756;28;19908;-62
2023/01/26 10:17:41;;;;;;;;;;;1.00;99.90;;;;;;5073825;28;19909;-62
2023/01/26 10:20:13;;;;;;;;;;;1.00;99.90;;;;;;5075432;28;20357;-62
2023/01/26 10:22:43;;;;;;;;;;;1.00;99.90;;;;;;5073992;28;20361;-62
2023/01/26 10:25:12;;;;;;;;;;;1.00;99.90;;;;;;5073122;28;19940;-63
2023/01/26 10:27:37;;;;;;;;;;;1.00;99.90;;;;;;5069719;28;20414;-62
2023/01/26 10:30:03;;;;;;;;;;;1.00;99.90;;;;;;5074085;28;19959;-62
2023/01/26 10:32:30;;;;;;;;;;;1.00;99.90;;;;;;5056066;28;20374;-63
2023/01/26 10:34:56;;;;;;;;;;;1.10;99.90;;;;;;5073081;28;19913;-61
2023/01/26 10:37:28;;;;;;;;;;;1.10;99.90;;;;;;5074080;28;19919;-61
2023/01/26 10:39:57;;;;;;;;;;;1.20;99.90;;;;;;5073669;28;19985;-61
2023/01/26 10:42:25;;;;;;;;;;;1.20;99.90;;;;;;5072530;28;19913;-61
2023/01/26 10:44:51;;;;;;;;;;;1.10;99.90;;;;;;5072734;28;19912;-59
2023/01/26 10:47:17;;;;;;;;;;;1.20;99.90;;;;;;5073831;28;19916;-61
2023/01/26 10:49:43;;;;;;;;;;;1.20;99.90;;;;;;5073531;28;19995;-62
2023/01/26 10:52:22;;;;;;;;;;;1.20;99.90;;;;;;5073334;28;20371;-62
2023/01/26 10:54:48;;;;;;;;;;;1.30;99.90;;;;;;5073308;28;19955;-60
2023/01/26 10:57:29;;;;;;;;;;;1.30;99.90;;;;;;5071840;28;19931;-62
2023/01/26 10:59:56;;;;;;;;;;;1.30;99.90;;;;;;5066959;28;20354;-62
2023/01/26 11:02:21;;;;;;;;;;;1.40;99.90;;;;;;5073441;28;19919;-62
2023/01/26 11:05:10;;;;;;;;;;;1.40;99.90;;;;;;5072984;28;19908;-60
2023/01/26 11:07:37;;;;;;;;;;;1.40;99.90;;;;;;5047192;28;19951;-62
2023/01/26 11:10:16;;;;;;;;;;;1.40;99.90;;;;;;5073050;28;20267;-62
2023/01/26 11:12:42;;;;;;;;;;;1.40;99.90;;;;;;5053088;28;20390;-62
2023/01/26 11:15:21;;;;;;;;;;;1.40;99.90;;;;;;5054681;28;19915;-62
2023/01/26 11:17:57;;;;;;;;;;;1.50;99.90;;;;;;5054940;28;19965;-62
2023/01/26 11:20:46;;;;;;;;;;;1.50;99.90;;;;;;5072356;28;19913;-62
2023/01/26 11:23:14;;;;;;;;;;;1.50;99.90;;;;;;5056488;28;20007;-61
2023/01/26 11:25:58;;;;;;;;;;;1.50;99.90;;;;;;5072223;28;19912;-62
2023/01/26 11:28:38;;;;;;;;;;;1.50;99.90;;;;;;5065113;28;19923;-61
2023/01/26 11:31:19;;;;;;;;;;;1.40;99.90;;;;;;5073050;28;19956;-61
2023/01/26 11:33:52;;;;;;;;;;;1.40;99.90;;;;;;5072295;28;19917;-61
2023/01/26 11:36:26;;;;;;;;;;;1.50;99.90;;;;;;5071940;28;19995;-61
2023/01/26 11:38:55;;;;;;;;;;;1.50;99.90;;;;;;5072539;28;19919;-61
2023/01/26 11:41:32;;;;;;;;;;;1.50;99.90;;;;;;5068120;28;19991;-61
2023/01/26 11:44:07;;;;;;;;;;;1.60;99.90;;;;;;5071979;28;19995;-61
2023/01/26 11:46:53;;;;;;;;;;;1.60;99.90;;;;;;5072233;28;20432;-62
2023/01/26 11:49:42;;;;;;;;;;;1.60;99.90;;;;;;5072441;28;20369;-62
2023/01/26 11:52:22;;;;;;;;;;;1.60;99.90;;;;;;5063258;28;19920;-60
2023/01/26 11:54:50;;;;;;;;;;;1.60;99.90;;;;;;5059364;28;19915;-59
2023/01/26 11:57:16;;;;;;;;;;;1.70;99.90;;;;;;5069133;28;19978;-61
2023/01/26 11:59:44;;;;;;;;;;;1.60;99.90;;;;;;5069505;28;20460;-61
2023/01/26 12:02:09;;;;;;;;;;;1.60;99.90;;;;;;5070360;28;19960;-62
2023/01/26 12:04:36;;;;;;;;;;;1.60;99.90;;;;;;5072727;28;20013;-61
2023/01/26 12:07:22;;;;;;;;;;;1.50;99.90;;;;;;5071129;28;20009;-62
2023/01/26 12:09:49;;;;;;;;;;;1.60;99.90;;;;;;5049776;28;19913;-61
2023/01/26 12:12:26;;;;;;;;;;;1.60;99.90;;;;;;5050750;28;20054;-60
2023/01/26 12:14:57;;;;;;;;;;;1.60;99.90;;;;;;5068108;28;19916;-61
2023/01/26 12:17:28;;;;;;;;;;;1.60;99.90;;;;;;5070268;28;20011;-61
2023/01/26 12:20:03;;;;;;;;;;;1.60;99.90;;;;;;5069125;28;21346;-63
2023/01/26 12:22:29;;;;;;;;;;;1.60;99.90;;;;;;5066021;28;19913;-61
2023/01/26 12:25:13;;;;;;;;;;;1.50;99.90;;;;;;5071656;28;19912;-62
2023/01/26 12:27:44;;;;;;;;;;;1.50;99.90;;;;;;5064000;28;19916;-63
2023/01/26 12:30:22;;;;;;;;;;;1.40;99.90;;;;;;5064938;28;20011;-62
2023/01/26 12:32:48;;;;;;;;;;;1.50;99.90;;;;;;5062780;28;19955;-60
2023/01/26 12:35:13;;;;;;;;;;;1.50;99.90;;;;;;5067510;28;20041;-62
2023/01/26 12:37:56;;;;;;;;;;;1.50;99.90;;;;;;5050673;28;20373;-61
2023/01/26 12:40:30;;;;;;;;;;;1.60;99.90;;;;;;5068892;28;19964;-61
2023/01/26 12:43:02;;;;;;;;;;;1.50;99.90;;;;;;5065257;28;19989;-62
2023/01/26 12:45:29;;;;;;;;;;;1.60;99.90;;;;;;5068742;28;19913;-62
2023/01/26 12:48:04;;;;;;;;;;;1.50;99.90;;;;;;5070144;28;20002;-61
2023/01/26 12:50:37;;;;;;;;;;;1.60;99.90;;;;;;5070034;28;20282;-62
2023/01/26 12:53:02;;;;;;;;;;;1.60;99.90;;;;;;5067017;28;20405;-63
2023/01/26 12:55:31;;;;;;;;;;;1.60;99.90;;;;;;5069446;28;19952;-62
2023/01/26 12:57:59;;;;;;;;;;;1.70;99.90;;;;;;5067008;28;20306;-63
2023/01/26 13:00:28;;;;;;;;;;;1.70;99.90;;;;;;5069016;28;19913;-61
2023/01/26 13:03:05;;;;;;;;;;;1.60;99.90;;;;;;5070755;28;19959;-60
2023/01/26 13:05:32;;;;;;;;;;;1.60;99.90;;;;;;5070695;28;19912;-62
2023/01/26 13:08:18;;;;;;;;;;;1.60;99.90;;;;;;5072052;28;19913;-62
2023/01/26 13:10:46;;;;;;;;;;;1.70;99.90;;;;;;5063766;28;19920;-63
2023/01/26 13:13:17;;;;;;;;;;;1.70;99.90;;;;;;5068393;28;19922;-62
2023/01/26 13:15:43;;;;;;;;;;;1.70;99.90;;;;;;5063970;28;19913;-62
2023/01/26 13:18:11;;;;;;;;;;;1.80;99.90;;;;;;5068715;28;19961;-62
2023/01/26 13:20:39;;;;;;;;;;;1.80;99.90;;;;;;5070520;28;20006;-62
2023/01/26 13:23:24;;;;;;;;;;;1.80;99.90;;;;;;5060761;28;19975;-61
2023/01/26 13:26:09;;;;;;;;;;;1.80;99.90;;;;;;5064650;28;19920;-62
2023/01/26 13:28:34;;;;;;;;;;;1.80;99.90;;;;;;5050366;28;19912;-61
2023/01/26 13:31:04;;;;;;;;;;;1.80;99.90;;;;;;5067864;28;20374;-61
2023/01/26 13:33:30;;;;;;;;;;;1.80;99.90;;;;;;5068002;28;19912;-61
2023/01/26 13:35:57;;;;;;;;;;;1.80;99.90;;;;;;5069189;28;19958;-61
2023/01/26 13:38:31;;;;;;;;;;;1.80;99.90;;;;;;5062203;28;19916;-61
2023/01/26 13:40:57;;;;;;;;;;;1.80;99.90;;;;;;5069168;28;19916;-61
2023/01/26 13:43:28;;;;;;;;;;;1.80;99.90;;;;;;5067966;28;20043;-62
2023/01/26 13:46:06;;;;;;;;;;;1.90;99.90;;;;;;5064245;28;19924;-63
2023/01/26 13:48:32;;;;;;;;;;;1.90;99.90;;;;;;5070561;28;19919;-62
2023/01/26 13:50:59;;;;;;;;;;;2.00;99.90;;;;;;5069337;28;19912;-61
2023/01/26 13:53:40;;;;;;;;;;;2.00;99.90;;;;;;5071190;28;19962;-61
2023/01/26 13:56:18;;;;;;;;;;;1.90;99.90;;;;;;5063899;28;19913;-60
2023/01/26 13:58:43;;;;;;;;;;;1.90;99.90;;;;;;5068004;28;19943;-60
2023/01/26 14:01:11;;;;;;;;;;;1.90;99.90;;;;;;5076926;28;19912;-61
2023/01/26 14:03:37;;;;;;;;;;;1.90;99.90;;;;;;5069121;28;19912;-62
2023/01/26 14:06:18;;;;;;;;;;;1.90;99.90;;;;;;5065448;28;20309;-62
2023/01/26 14:08:51;;;;;;;;;;;1.90;99.90;;;;;;5070070;28;19920;-62
2023/01/26 14:11:18;;;;;;;;;;;1.90;99.90;;;;;;5074102;28;20382;-61
2023/01/26 14:13:46;;;;;;;;;;;1.90;99.90;;;;;;5075697;28;19908;-60
2023/01/26 14:16:19;;;;;;;;;;;2.00;99.90;;;;;;5064371;28;19913;-61
2023/01/26 14:18:46;;;;;;;;;;;1.90;99.90;;;;;;5069624;28;19975;-62
2023/01/26 14:21:17;;;;;;;;;;;1.90;99.90;;;;;;5061815;28;20001;-62
2023/01/26 14:23:42;;;;;;;;;;;1.90;99.90;;;;;;5070108;28;19986;-59
2023/01/26 14:26:16;;;;;;;;;;;1.90;99.90;;;;;;5070074;28;20381;-61
2023/01/26 14:28:42;;;;;;;;;;;2.00;99.90;;;;;;5065526;28;19917;-61
2023/01/26 14:31:21;;;;;;;;;;;2.00;99.90;;;;;;5069704;28;19996;-60
2023/01/26 14:33:47;;;;;;;;;;;2.00;99.90;;;;;;5047359;28;20526;-62
2023/01/26 14:36:14;;;;;;;;;;;2.00;99.90;;;;;;5070592;28;19917;-62
2023/01/26 14:38:41;;;;;;;;;;;2.00;99.90;;;;;;5065332;28;19981;-61
2023/01/26 14:41:08;;;;;;;;;;;2.10;99.90;;;;;;5069669;28;19912;-61
2023/01/26 14:43:34;;;;;;;;;;;2.10;99.90;;;;;;5053733;28;19912;-60
2023/01/26 14:46:04;;;;;;;;;;;2.10;99.90;;;;;;5060752;28;19990;-62
2023/01/26 14:48:52;;;;;;;;;;;2.10;99.90;;;;;;5068479;28;20018;-60
2023/01/26 14:51:22;;;;;;;;;;;2.10;99.90;;;;;;5063761;28;20285;-61
2023/01/26 14:53:52;;;;;;;;;;;2.20;99.90;;;;;;5061098;28;19991;-61
2023/01/26 14:56:19;;;;;;;;;;;2.20;99.90;;;;;;5071913;28;19947;-62
2023/01/26 14:58:48;;;;;;;;;;;2.20;99.90;;;;;;5068316;28;19913;-62
2023/01/26 15:01:18;;;;;;;;;;;2.20;99.90;;;;;;5070151;28;20365;-62
2023/01/26 15:03:44;;;;;;;;;;;2.20;99.90;;;;;;5066534;28;19999;-61
2023/01/26 15:06:12;;;;;;;;;;;2.20;99.90;;;;;;5069179;28;20003;-61
2023/01/26 15:08:38;;;;;;;;;;;2.20;99.90;;;;;;5069036;28;20363;-62
2023/01/26 15:13:52;;;;;;;;;;;2.30;99.90;;;;;;5070754;28;19918;-62
2023/01/26 15:16:26;;;;;;;;;;;2.30;99.90;;;;;;5063304;28;20443;-62